Time;durP1;ratioP1;P1;durP2;ratioP2;P2;SDS_P1;SDS_P2;PMS_P1;PMS_P2;Temp;Humidity;BMP_temperature;BMP_pressure;BME280_temperature;BME280_humidity;BME280_pressure;Samples;Min_cycle;Max_cycle;Signal;HPM_P1;HPM_P2
2024/01/19 00:01:29;;;;;;;7.78;2.63;;;1.20;99.90;;;;;;4995629;28;20197;-73
2024/01/19 00:03:58;;;;;;;5.78;3.15;;;1.10;99.90;;;;;;4996944;28;20206;-71
2024/01/19 00:06:25;;;;;;;6.10;3.55;;;1.20;99.90;;;;;;5001210;28;20296;-70
2024/01/19 00:08:52;;;;;;;10.52;2.63;;;1.20;99.90;;;;;;5001837;28;20203;-72
2024/01/19 00:11:19;;;;;;;5.65;3.40;;;1.30;99.90;;;;;;5001213;28;20273;-73
2024/01/19 00:13:46;;;;;;;8.52;2.90;;;1.30;99.90;;;;;;4997455;28;20205;-71
2024/01/19 00:16:13;;;;;;;5.00;2.83;;;1.20;99.90;;;;;;4999418;28;20261;-70
2024/01/19 00:18:40;;;;;;;4.80;2.75;;;1.20;99.90;;;;;;5002000;28;20206;-71
2024/01/19 00:21:08;;;;;;;5.57;2.38;;;1.20;99.90;;;;;;4988268;28;20244;-71
2024/01/19 00:23:35;;;;;;;10.35;3.10;;;1.20;99.90;;;;;;4997004;28;20225;-71
2024/01/19 00:26:02;;;;;;;3.15;1.98;;;1.10;99.90;;;;;;4995407;28;20268;-70
2024/01/19 00:28:29;;;;;;;3.25;2.55;;;1.10;99.90;;;;;;4995058;28;20241;-70
2024/01/19 00:30:56;;;;;;;3.90;2.53;;;1.00;99.90;;;;;;4996734;28;20675;-70
2024/01/19 00:33:23;;;;;;;5.15;2.00;;;1.00;99.90;;;;;;4995554;28;20265;-69
2024/01/19 00:35:50;;;;;;;4.55;2.38;;;1.00;99.90;;;;;;4994422;28;20261;-71
2024/01/19 00:38:18;;;;;;;6.65;2.47;;;0.90;99.90;;;;;;4999922;28;20296;-70
2024/01/19 00:40:45;;;;;;;6.40;2.33;;;0.90;99.90;;;;;;4996202;28;20206;-71
2024/01/19 00:43:12;;;;;;;3.78;2.40;;;0.80;99.90;;;;;;4989466;28;21364;-71
2024/01/19 00:45:39;;;;;;;8.70;3.00;;;0.80;99.90;;;;;;4984698;28;20237;-71
2024/01/19 00:48:07;;;;;;;6.82;3.08;;;0.80;99.90;;;;;;4997889;28;20234;-71
2024/01/19 00:50:33;;;;;;;9.63;1.95;;;0.80;99.90;;;;;;4994402;28;20210;-71
2024/01/19 00:53:00;;;;;;;12.18;2.40;;;0.80;99.90;;;;;;4992798;28;20716;-70
2024/01/19 00:55:29;;;;;;;5.05;2.03;;;0.80;99.90;;;;;;4988048;28;20218;-70
2024/01/19 00:57:56;;;;;;;8.95;2.70;;;0.80;99.90;;;;;;4985848;28;20211;-69
2024/01/19 01:00:23;;;;;;;8.00;3.10;;;0.90;99.90;;;;;;4992173;28;20237;-71
2024/01/19 01:02:50;;;;;;;7.80;2.67;;;0.90;99.90;;;;;;4991315;28;20681;-71
2024/01/19 01:05:19;;;;;;;7.90;2.60;;;0.90;99.90;;;;;;4994171;28;20265;-71
2024/01/19 01:07:46;;;;;;;9.48;2.22;;;0.90;99.90;;;;;;4999794;28;20216;-71
2024/01/19 01:10:13;;;;;;;6.60;2.60;;;0.90;99.90;;;;;;4994687;28;20214;-69
2024/01/19 01:12:41;;;;;;;4.60;2.10;;;0.90;99.90;;;;;;4992248;28;20226;-70
2024/01/19 01:15:08;;;;;;;2.95;2.65;;;1.00;99.90;;;;;;4983220;28;20268;-70
2024/01/19 01:17:35;;;;;;;5.60;3.22;;;1.00;99.90;;;;;;5003766;28;20226;-70
2024/01/19 01:20:02;;;;;;;5.15;1.85;;;1.00;99.90;;;;;;5002663;28;20283;-70
2024/01/19 01:22:31;;;;;;;7.15;2.85;;;1.10;99.90;;;;;;4993324;28;20324;-69
2024/01/19 01:24:58;;;;;;;3.72;2.13;;;1.10;99.90;;;;;;4993838;28;20260;-70
2024/01/19 01:27:25;;;;;;;5.75;1.70;;;1.10;99.90;;;;;;5002190;28;20736;-70
2024/01/19 01:29:53;;;;;;;3.08;1.98;;;1.10;99.90;;;;;;4993981;28;20268;-71
2024/01/19 01:32:20;;;;;;;4.60;2.17;;;1.20;99.90;;;;;;4993207;28;20639;-71
2024/01/19 01:34:47;;;;;;;3.55;2.05;;;1.20;99.90;;;;;;5005692;28;20254;-70
2024/01/19 01:37:14;;;;;;;4.13;2.15;;;1.30;99.90;;;;;;4994110;28;20237;-70
2024/01/19 01:39:41;;;;;;;4.47;1.92;;;1.30;99.90;;;;;;4994289;28;20245;-70
2024/01/19 01:42:08;;;;;;;3.28;2.05;;;1.30;99.90;;;;;;4994299;28;20258;-71
2024/01/19 01:44:35;;;;;;;9.52;2.28;;;1.40;99.90;;;;;;4990131;28;20637;-71
2024/01/19 01:47:03;;;;;;;3.50;2.30;;;1.60;99.90;;;;;;5003533;28;20233;-71
2024/01/19 01:49:30;;;;;;;2.22;1.77;;;1.50;99.90;;;;;;5005375;28;20252;-70
2024/01/19 01:51:58;;;;;;;5.35;2.22;;;1.50;99.90;;;;;;4996168;28;20272;-70
2024/01/19 01:54:25;;;;;;;7.90;1.83;;;1.50;99.90;;;;;;4998775;28;20237;-70
2024/01/19 01:56:53;;;;;;;6.07;2.35;;;1.60;99.90;;;;;;4994222;28;20316;-71
2024/01/19 01:59:20;;;;;;;6.57;1.55;;;1.60;99.90;;;;;;4994028;28;20238;-69
2024/01/19 02:01:47;;;;;;;5.25;1.92;;;1.50;99.90;;;;;;4991104;28;20269;-70
2024/01/19 02:04:16;;;;;;;4.40;1.73;;;1.50;99.90;;;;;;5001089;28;20262;-72
2024/01/19 02:06:43;;;;;;;9.25;2.70;;;1.40;99.90;;;;;;4993362;28;20268;-70
2024/01/19 02:09:11;;;;;;;5.43;2.38;;;1.40;99.90;;;;;;4989594;28;20232;-71
2024/01/19 02:11:38;;;;;;;5.15;2.45;;;1.30;99.90;;;;;;4990299;28;20264;-72
2024/01/19 02:14:06;;;;;;;2.67;1.77;;;1.20;99.90;;;;;;4989963;28;20668;-70
2024/01/19 02:16:33;;;;;;;2.72;2.03;;;1.20;99.90;;;;;;4984756;28;20326;-69
2024/01/19 02:19:00;;;;;;;3.28;2.05;;;1.20;99.90;;;;;;4991848;28;20681;-70
2024/01/19 02:21:29;;;;;;;3.17;1.80;;;1.20;99.90;;;;;;5000111;28;20553;-71
2024/01/19 02:24:01;;;;;;;19.50;2.50;;;1.30;99.90;;;;;;4999521;28;20245;-69
2024/01/19 02:26:31;;;;;;;8.45;2.05;;;1.20;99.90;;;;;;5002532;28;20201;-69
2024/01/19 02:28:58;;;;;;;9.90;2.30;;;1.10;99.90;;;;;;4986664;28;20736;-70
2024/01/19 02:31:25;;;;;;;5.05;2.20;;;1.10;99.90;;;;;;4985879;28;20292;-70
2024/01/19 02:33:53;;;;;;;4.18;2.33;;;1.10;99.90;;;;;;4995823;28;20206;-69
2024/01/19 02:36:20;;;;;;;2.50;1.90;;;1.00;99.90;;;;;;4995508;28;20284;-69
2024/01/19 02:39:30;;;;;;;;;;;;;;;;;;;;;
2024/01/19 02:49:08;;;;;;;4.50;2.25;;;0.90;99.90;;;;;;4963956;28;20213;-80
2024/01/19 02:52:06;;;;;;;8.55;2.00;;;0.90;99.90;;;;;;4975513;28;20731;-82
2024/01/19 03:04:55;;;;;;;9.27;2.95;;;0.80;99.90;;;;;;4972623;28;20674;-81
2024/01/19 03:07:38;;;;;;;7.15;1.95;;;0.80;99.90;;;;;;4978145;28;20229;-82
2024/01/19 03:13:01;;;;;;;6.88;2.10;;;0.80;99.90;;;;;;4971583;28;20234;-81
2024/01/19 03:15:35;;;;;;;6.18;2.65;;;0.80;99.90;;;;;;4975752;28;20245;-81
2024/01/19 03:18:32;;;;;;;3.78;2.13;;;0.60;99.90;;;;;;4972482;28;20210;-82
2024/01/19 03:21:12;;;;;;;12.93;3.75;;;0.80;99.90;;;;;;4978761;28;20225;-83
2024/01/19 03:23:58;;;;;;;6.07;2.05;;;0.80;99.90;;;;;;4965394;28;20231;-82
2024/01/19 03:26:36;;;;;;;8.38;2.55;;;0.80;99.90;;;;;;4981441;28;20582;-82
2024/01/19 03:29:18;;;;;;;2.17;1.98;;;0.90;99.90;;;;;;4972782;28;20214;-81
2024/01/19 03:32:01;;;;;;;9.50;2.25;;;0.80;99.90;;;;;;4978741;28;20206;-81
2024/01/19 03:34:43;;;;;;;9.57;2.97;;;0.80;99.90;;;;;;4970584;28;20227;-82
2024/01/19 03:40:06;;;;;;;4.22;1.75;;;0.90;99.90;;;;;;4983039;28;20241;-81
2024/01/19 03:42:47;;;;;;;5.43;1.77;;;0.90;99.90;;;;;;4976300;28;20263;-81
2024/01/19 03:45:17;;;;;;;2.17;1.38;;;1.10;99.90;;;;;;4981852;28;20214;-80
2024/01/19 03:47:49;;;;;;;4.43;2.03;;;1.20;99.90;;;;;;4965025;28;20294;-81
2024/01/19 03:57:02;;;;;;;2.30;1.38;;;1.40;99.90;;;;;;4975208;28;20219;-82
2024/01/19 04:02:35;;;;;;;6.45;1.77;;;1.40;99.90;;;;;;4987005;28;20207;-82
2024/01/19 04:05:54;;;;;;;3.30;1.70;;;1.70;99.90;;;;;;4964547;28;20612;-80
2024/01/19 04:09:19;;;;;;;1.30;1.20;;;1.50;99.90;;;;;;4974356;28;20207;-81
2024/01/19 04:21:44;;;;;;;6.47;1.70;;;1.30;99.90;;;;;;4919850;28;20274;-81
2024/01/19 04:24:23;;;;;;;6.03;1.83;;;1.20;99.90;;;;;;4957528;28;20302;-81
2024/01/19 04:27:11;;;;;;;3.58;1.85;;;1.30;99.90;;;;;;4958735;28;20210;-80
2024/01/19 04:29:59;;;;;;;1.90;1.67;;;1.30;99.90;;;;;;4973743;28;20214;-80
2024/01/19 04:32:57;;;;;;;1.73;1.15;;;1.30;99.90;;;;;;4994006;28;20271;-81
2024/01/19 04:38:57;;;;;;;5.03;2.38;;;1.20;99.90;;;;;;4978369;28;20607;-82
2024/01/19 04:42:11;;;;;;;;;;;;;;;;;;;;;
2024/01/19 04:45:02;;;;;;;8.48;1.50;;;1.20;99.90;;;;;;4966336;28;20219;-81
2024/01/19 04:50:52;;;;;;;3.58;2.30;;;0.90;99.90;;;;;;4985429;28;20576;-81
2024/01/19 05:04:24;;;;;;;2.40;1.60;;;1.10;99.90;;;;;;4985663;28;20256;-79
2024/01/19 05:06:56;;;;;;;4.63;2.60;;;1.10;99.90;;;;;;4988234;28;20203;-81
2024/01/19 05:09:47;;;;;;;2.83;1.85;;;1.30;99.90;;;;;;4966554;28;20220;-82
2024/01/19 05:12:17;;;;;;;4.40;1.80;;;1.10;99.90;;;;;;4975134;28;20233;-81
2024/01/19 05:14:52;;;;;;;6.45;2.20;;;1.10;99.90;;;;;;4973095;28;20354;-81
2024/01/19 05:17:31;;;;;;;8.25;2.90;;;1.10;99.90;;;;;;4966771;28;20220;-82
2024/01/19 05:23:03;;;;;;;5.05;2.95;;;1.00;99.90;;;;;;4976152;28;20283;-81
2024/01/19 05:25:47;;;;;;;3.85;3.13;;;1.00;99.90;;;;;;4978991;28;20211;-82
2024/01/19 05:28:25;;;;;;;8.45;3.65;;;0.90;99.90;;;;;;4979680;28;20258;-81
2024/01/19 05:31:03;;;;;;;6.10;3.30;;;0.90;99.90;;;;;;4982307;28;20195;-80
2024/01/19 05:33:34;;;;;;;3.60;3.10;;;0.80;99.90;;;;;;4983604;28;20246;-80
2024/01/19 05:36:40;;;;;;;3.75;2.90;;;0.60;99.90;;;;;;4985056;28;20191;-80
2024/01/19 05:39:19;;;;;;;11.65;2.42;;;0.90;99.90;;;;;;4989359;28;20194;-80
2024/01/19 05:42:07;;;;;;;4.82;3.15;;;0.80;99.90;;;;;;4986175;28;20188;-79
2024/01/19 05:44:48;;;;;;;2.75;2.55;;;0.70;99.90;;;;;;4984739;28;20218;-80
2024/01/19 06:00:00;;;;;;;4.10;3.20;;;0.70;99.90;;;;;;4972221;28;20205;-81
2024/01/19 06:02:39;;;;;;;6.18;3.70;;;0.70;99.90;;;;;;4975999;28;20265;-81
2024/01/19 06:05:16;;;;;;;9.20;4.50;;;0.80;99.90;;;;;;4979765;28;20229;-80
2024/01/19 06:11:34;;;;;;;10.55;4.00;;;0.70;99.90;;;;;;4967302;28;20876;-83
2024/01/19 06:14:09;;;;;;;9.60;4.15;;;0.70;99.90;;;;;;4979134;28;20214;-79
2024/01/19 06:17:04;;;;;;;7.10;4.78;;;0.80;99.90;;;;;;4987317;28;20218;-81
2024/01/19 06:19:31;;;;;;;14.43;4.50;;;0.90;99.90;;;;;;4971224;28;20207;-80
2024/01/19 06:21:58;;;;;;;7.40;3.90;;;1.00;99.90;;;;;;4979848;28;20246;-80
2024/01/19 06:24:36;;;;;;;6.22;4.03;;;1.10;99.90;;;;;;4981939;28;20247;-81
2024/01/19 06:27:09;;;;;;;7.75;4.70;;;1.20;99.90;;;;;;4962011;28;20210;-81
2024/01/19 06:29:59;;;;;;;9.10;4.68;;;1.30;99.90;;;;;;4982878;28;20214;-80
2024/01/19 06:36:09;;;;;;;11.57;4.88;;;1.30;99.90;;;;;;4964995;28;20215;-85
2024/01/19 06:38:48;;;;;;;11.77;5.25;;;1.20;99.90;;;;;;4984958;28;20223;-85
2024/01/19 06:41:16;;;;;;;14.43;7.15;;;1.20;99.90;;;;;;4971873;28;20211;-85
2024/01/19 06:50:41;;;;;;;6.60;4.78;;;0.80;99.90;;;;;;4966572;28;20187;-86
2024/01/19 06:53:16;;;;;;;13.15;4.80;;;0.70;99.90;;;;;;4984689;28;20360;-85
2024/01/19 06:55:47;;;;;;;8.18;6.45;;;0.50;99.90;;;;;;4974458;28;20223;-84
2024/01/19 06:58:40;;;;;;;7.85;5.82;;;0.70;99.90;;;;;;4964565;28;20295;-82
2024/01/19 07:01:07;;;;;;;7.57;5.85;;;0.50;99.90;;;;;;4966321;28;20207;-85
2024/01/19 07:07:29;;;;;;;10.40;6.40;;;0.60;99.90;;;;;;4959369;28;20209;-82
2024/01/19 07:09:58;;;;;;;8.80;5.32;;;0.60;99.90;;;;;;4927582;29;20211;-79
2024/01/19 07:12:33;;;;;;;14.20;6.88;;;0.60;99.90;;;;;;4968533;28;20424;-82
2024/01/19 07:15:24;;;;;;;31.98;7.07;;;0.60;99.90;;;;;;4980107;28;20191;-82
2024/01/19 07:17:54;;;;;;;11.57;7.57;;;0.70;99.90;;;;;;4984709;28;20487;-83
2024/01/19 07:23:40;;;;;;;10.80;5.95;;;0.60;99.90;;;;;;4916065;29;20231;-83
2024/01/19 07:26:41;;;;;;;7.00;5.00;;;0.70;99.90;;;;;;4930776;28;20217;-84
2024/01/19 07:29:50;;;;;;;5.65;5.00;;;0.70;99.90;;;;;;4938465;28;20305;-84
2024/01/19 07:35:38;;;;;;;12.73;6.97;;;0.90;99.90;;;;;;4891067;29;20931;-86
2024/01/19 07:38:22;;;;;;;9.80;4.70;;;0.60;99.90;;;;;;4917554;29;20237;-87
2024/01/19 07:40:50;;;;;;;8.90;4.47;;;0.70;99.90;;;;;;4931465;29;20266;-83
2024/01/19 07:43:21;;;;;;;6.18;4.95;;;0.70;99.90;;;;;;4924783;29;20257;-86
2024/01/19 07:45:49;;;;;;;9.07;3.70;;;0.70;99.90;;;;;;4941202;28;20665;-83
2024/01/19 07:48:16;;;;;;;9.85;4.88;;;0.80;99.90;;;;;;4969953;28;20219;-85
2024/01/19 07:51:31;;;;;;;10.15;4.05;;;0.80;99.90;;;;;;4982094;28;20203;-83
2024/01/19 07:54:35;;;;;;;8.70;3.70;;;0.80;99.90;;;;;;4990534;28;20241;-82
2024/01/19 07:57:28;;;;;;;6.20;4.53;;;0.80;99.90;;;;;;4968622;28;20231;-84
2024/01/19 08:06:21;;;;;;;4.15;3.10;;;0.90;99.90;;;;;;4908296;29;20209;-82
2024/01/19 08:09:21;;;;;;;5.50;3.35;;;0.80;99.90;;;;;;4924757;28;20288;-84
2024/01/19 08:12:16;;;;;;;5.00;4.35;;;1.00;99.90;;;;;;4927219;29;20324;-83
2024/01/19 08:14:43;;;;;;;5.70;4.05;;;1.10;99.90;;;;;;4975824;23;20257;-71
2024/01/19 08:17:11;;;;;;;6.30;4.95;;;1.10;99.90;;;;;;4999956;28;20222;-73
2024/01/19 08:19:38;;;;;;;4.40;3.38;;;1.20;99.90;;;;;;4998682;28;20249;-75
2024/01/19 08:22:07;;;;;;;5.03;2.95;;;1.30;99.90;;;;;;5008080;28;20792;-73
2024/01/19 08:24:37;;;;;;;5.50;3.35;;;1.40;99.90;;;;;;4998605;28;20209;-76
2024/01/19 08:27:05;;;;;;;8.38;3.08;;;1.50;99.90;;;;;;5003250;28;20589;-71
2024/01/19 08:29:32;;;;;;;7.97;3.50;;;1.90;99.90;;;;;;4994925;28;20726;-74
2024/01/19 08:31:59;;;;;;;8.20;2.70;;;2.40;99.90;;;;;;5001696;28;20225;-75
2024/01/19 08:34:28;;;;;;;8.25;4.43;;;2.90;99.90;;;;;;5005809;28;20210;-71
2024/01/19 08:36:55;;;;;;;4.72;2.70;;;3.20;99.90;;;;;;5003185;28;20220;-73
2024/01/19 08:39:23;;;;;;;6.60;2.40;;;3.70;99.90;;;;;;5005730;28;20225;-71
2024/01/19 08:41:50;;;;;;;4.43;3.00;;;3.80;99.90;;;;;;4997294;28;20600;-69
2024/01/19 08:44:17;;;;;;;7.05;3.20;;;4.10;99.90;;;;;;5000922;28;20202;-70
2024/01/19 08:46:44;;;;;;;7.18;3.67;;;4.60;99.90;;;;;;5000242;28;20265;-70
2024/01/19 08:49:11;;;;;;;12.77;3.03;;;4.70;99.90;;;;;;5005912;28;20660;-70
2024/01/19 08:51:41;;;;;;;10.15;3.95;;;4.90;99.90;;;;;;5005017;28;20237;-68
2024/01/19 08:54:08;;;;;;;9.60;3.05;;;5.10;99.90;;;;;;5003233;28;20213;-72
2024/01/19 08:56:35;;;;;;;7.93;3.30;;;5.30;99.90;;;;;;5003680;28;20205;-70
2024/01/19 08:59:02;;;;;;;6.30;3.30;;;5.30;99.90;;;;;;4996700;28;20253;-70
2024/01/19 09:01:29;;;;;;;4.50;3.75;;;5.60;99.90;;;;;;5007961;28;20233;-71
2024/01/19 09:03:56;;;;;;;9.02;4.03;;;5.70;99.90;;;;;;5003354;28;20255;-71
2024/01/19 09:06:24;;;;;;;5.55;2.80;;;5.70;99.90;;;;;;4995908;28;20738;-71
2024/01/19 09:08:52;;;;;;;7.80;2.70;;;5.40;99.90;;;;;;5010913;28;20197;-71
2024/01/19 09:11:19;;;;;;;10.50;4.10;;;5.00;99.90;;;;;;5000465;28;20617;-72
2024/01/19 09:13:46;;;;;;;10.73;3.35;;;5.20;99.90;;;;;;5005657;28;20221;-71
2024/01/19 09:16:13;;;;;;;7.57;3.20;;;5.70;99.90;;;;;;4999021;28;20249;-70
2024/01/19 09:18:41;;;;;;;9.43;3.22;;;6.60;99.90;;;;;;5009335;28;20225;-70
2024/01/19 09:21:09;;;;;;;10.43;3.78;;;6.60;99.90;;;;;;4996754;28;20270;-71
2024/01/19 09:23:36;;;;;;;5.80;3.38;;;6.10;99.90;;;;;;4993769;28;20292;-71
2024/01/19 09:26:05;;;;;;;8.52;3.10;;;6.00;99.90;;;;;;5005125;28;20292;-71
2024/01/19 09:28:32;;;;;;;6.45;3.30;;;5.90;99.90;;;;;;5002457;28;20198;-70
2024/01/19 09:30:59;;;;;;;12.38;3.55;;;5.90;99.90;;;;;;5000792;28;20566;-71
2024/01/19 09:33:26;;;;;;;13.05;4.10;;;6.50;99.90;;;;;;4993451;28;20299;-71
2024/01/19 09:35:53;;;;;;;8.00;3.15;;;7.30;99.90;;;;;;5000529;28;20275;-72
2024/01/19 09:38:20;;;;;;;8.43;3.83;;;7.50;99.90;;;;;;5004695;28;20758;-77
2024/01/19 09:40:48;;;;;;;7.68;2.92;;;7.80;99.90;;;;;;5007501;28;20730;-75
2024/01/19 09:43:16;;;;;;;3.42;3.08;;;7.90;99.90;;;;;;5000483;28;20260;-74
2024/01/19 09:45:49;;;;;;;7.35;4.20;;;7.90;99.90;;;;;;4999477;28;20300;-75
2024/01/19 09:48:23;;;;;;;7.20;3.63;;;7.50;99.90;;;;;;5000507;28;20229;-76
2024/01/19 09:50:55;;;;;;;14.35;4.00;;;7.50;99.90;;;;;;4995714;28;20679;-76
2024/01/19 09:53:32;;;;;;;9.85;3.20;;;7.70;99.90;;;;;;5000817;28;20230;-76
2024/01/19 09:55:59;;;;;;;23.27;6.15;;;7.10;99.90;;;;;;5010203;28;20572;-76
2024/01/19 09:58:30;;;;;;;9.65;3.50;;;7.70;99.90;;;;;;5012668;28;20225;-76
2024/01/19 10:00:57;;;;;;;5.28;3.00;;;7.60;99.90;;;;;;5002848;28;20208;-75
2024/01/19 10:03:29;;;;;;;4.57;4.07;;;7.20;99.90;;;;;;5001275;28;20691;-77
2024/01/19 10:05:56;;;;;;;5.43;2.92;;;7.20;99.90;;;;;;5007611;28;20263;-76
2024/01/19 10:08:23;;;;;;;5.10;2.75;;;7.50;99.90;;;;;;4998304;28;20264;-77
2024/01/19 10:10:51;;;;;;;6.70;3.40;;;7.60;99.90;;;;;;5000371;28;20624;-76
2024/01/19 10:13:18;;;;;;;11.07;3.70;;;7.80;99.90;;;;;;4997456;28;20316;-75
2024/01/19 10:15:47;;;;;;;7.40;3.70;;;7.60;99.90;;;;;;5001512;28;20303;-78
2024/01/19 10:18:14;;;;;;;8.23;3.55;;;8.00;99.90;;;;;;5002929;28;20230;-78
2024/01/19 10:20:43;;;;;;;3.70;2.70;;;7.50;99.90;;;;;;4997395;28;20202;-75
2024/01/19 10:23:20;;;;;;;22.63;6.70;;;7.40;99.90;;;;;;5010810;28;20224;-75
2024/01/19 10:25:47;;;;;;;6.93;4.10;;;6.60;99.90;;;;;;5009009;28;20273;-75
2024/01/19 10:28:29;;;;;;;9.95;3.97;;;6.90;99.90;;;;;;4995501;28;20594;-74
2024/01/19 10:31:15;;;;;;;8.95;4.28;;;6.80;99.90;;;;;;5001393;28;20210;-75
2024/01/19 10:33:49;;;;;;;7.32;4.60;;;6.90;99.90;;;;;;5000948;28;20238;-76
2024/01/19 10:36:16;;;;;;;7.10;3.63;;;6.80;99.90;;;;;;5006110;28;20656;-76
2024/01/19 10:38:44;;;;;;;10.27;3.70;;;6.90;99.90;;;;;;4997038;28;20272;-76
2024/01/19 10:41:15;;;;;;;6.90;3.45;;;6.70;99.90;;;;;;5000338;28;20649;-75
2024/01/19 10:43:42;;;;;;;3.38;3.08;;;6.60;99.90;;;;;;4997130;28;20313;-76
2024/01/19 10:46:32;;;;;;;11.65;4.55;;;6.20;99.90;;;;;;4995571;28;20252;-75
2024/01/19 10:49:04;;;;;;;13.15;3.40;;;6.10;99.90;;;;;;5001237;28;20226;-80
2024/01/19 10:51:33;;;;;;;6.55;3.70;;;5.70;99.90;;;;;;5002765;28;20202;-76
2024/01/19 10:54:02;;;;;;;7.80;3.67;;;5.50;99.90;;;;;;4998060;28;20201;-75
2024/01/19 10:56:30;;;;;;;12.10;5.10;;;5.50;99.90;;;;;;4993386;28;20266;-78
2024/01/19 10:59:09;;;;;;;9.43;4.47;;;5.50;99.90;;;;;;4996773;28;20309;-76
2024/01/19 11:01:38;;;;;;;6.80;3.95;;;5.40;99.90;;;;;;5005965;28;20214;-74
2024/01/19 11:04:08;;;;;;;5.75;3.53;;;5.30;99.90;;;;;;5009864;28;20280;-76
2024/01/19 11:06:36;;;;;;;5.35;3.63;;;5.40;99.90;;;;;;4999689;28;20206;-76
2024/01/19 11:09:05;;;;;;;15.40;5.07;;;5.50;99.90;;;;;;5007531;28;20225;-76
2024/01/19 11:11:36;;;;;;;6.28;3.72;;;5.50;99.90;;;;;;4997378;28;20217;-77
2024/01/19 11:14:08;;;;;;;5.53;3.78;;;5.40;99.90;;;;;;5000255;28;20664;-75
2024/01/19 11:16:46;;;;;;;7.50;3.55;;;5.60;99.90;;;;;;4996619;28;20281;-76
2024/01/19 11:19:15;;;;;;;12.55;4.80;;;5.50;99.90;;;;;;5010772;28;20240;-76
2024/01/19 11:21:44;;;;;;;8.48;3.75;;;5.20;99.90;;;;;;5005302;28;20237;-78
2024/01/19 11:24:14;;;;;;;7.97;4.18;;;5.30;99.90;;;;;;5000362;28;20296;-76
2024/01/19 11:26:46;;;;;;;11.73;4.75;;;5.20;99.90;;;;;;5004810;28;20213;-76
2024/01/19 11:29:20;;;;;;;11.45;4.30;;;5.20;99.90;;;;;;5001574;28;20612;-76
2024/01/19 11:31:49;;;;;;;8.13;4.28;;;5.20;99.90;;;;;;5004691;28;20643;-77
2024/01/19 11:34:44;;;;;;;8.55;3.67;;;5.30;99.90;;;;;;4995379;28;20269;-77
2024/01/19 11:37:43;;;;;;;10.85;3.45;;;5.30;99.90;;;;;;4997978;28;20198;-74
2024/01/19 11:40:34;;;;;;;5.30;2.80;;;5.10;99.90;;;;;;4999067;28;20224;-76
2024/01/19 11:43:03;;;;;;;7.68;3.30;;;5.10;99.90;;;;;;4998772;28;20316;-76
2024/01/19 11:45:42;;;;;;;5.63;2.50;;;5.00;99.90;;;;;;5007714;28;20667;-76
2024/01/19 11:48:11;;;;;;;4.53;3.00;;;5.00;99.90;;;;;;5007039;28;20252;-75
2024/01/19 11:50:43;;;;;;;5.32;2.83;;;5.10;99.90;;;;;;4999628;28;20208;-76
2024/01/19 11:53:10;;;;;;;3.22;2.75;;;5.00;99.90;;;;;;4997507;28;20309;-76
2024/01/19 11:55:42;;;;;;;5.43;3.22;;;5.00;99.90;;;;;;5000516;28;20676;-75
2024/01/19 11:58:38;;;;;;;16.70;3.05;;;5.10;99.90;;;;;;5008341;28;20265;-76
2024/01/19 12:01:07;;;;;;;7.47;2.78;;;5.10;99.90;;;;;;5002201;28;20210;-76
2024/01/19 12:03:36;;;;;;;9.93;2.60;;;5.10;99.90;;;;;;5001485;28;20231;-77
2024/01/19 12:06:05;;;;;;;7.85;3.00;;;5.20;99.90;;;;;;5002455;28;20225;-75
2024/01/19 12:08:32;;;;;;;9.05;2.70;;;5.30;99.90;;;;;;4995131;28;20242;-74
2024/01/19 12:11:07;;;;;;;6.57;2.63;;;5.20;99.90;;;;;;5000831;28;20201;-75
2024/01/19 12:13:36;;;;;;;7.60;2.10;;;5.20;99.90;;;;;;5001592;28;20604;-75
2024/01/19 12:16:04;;;;;;;7.28;2.03;;;5.00;99.90;;;;;;5008597;28;20695;-77
2024/01/19 12:18:33;;;;;;;10.15;3.47;;;5.10;99.90;;;;;;5013000;28;20228;-77
2024/01/19 12:21:01;;;;;;;6.70;2.75;;;5.00;99.90;;;;;;5005130;28;20194;-75
2024/01/19 12:23:30;;;;;;;8.82;2.80;;;5.10;99.90;;;;;;5001192;28;20276;-77
2024/01/19 12:25:58;;;;;;;5.75;2.03;;;5.10;99.90;;;;;;5006518;28;20588;-77
2024/01/19 12:28:25;;;;;;;11.38;2.13;;;5.20;99.90;;;;;;5000205;28;20643;-78
2024/01/19 12:30:53;;;;;;;10.20;3.15;;;5.20;99.90;;;;;;5000213;28;20206;-78
2024/01/19 12:33:25;;;;;;;8.55;3.47;;;5.20;99.90;;;;;;5011015;28;20650;-74
2024/01/19 12:36:05;;;;;;;11.55;3.42;;;5.10;99.90;;;;;;5002226;28;20210;-75
2024/01/19 12:38:32;;;;;;;6.15;2.15;;;5.20;99.90;;;;;;5006504;28;20311;-74
2024/01/19 12:40:59;;;;;;;8.45;3.20;;;5.10;99.90;;;;;;5008532;28;20213;-74
2024/01/19 12:43:30;;;;;;;7.00;3.22;;;5.00;99.90;;;;;;5005004;28;20226;-77
2024/01/19 12:46:05;;;;;;;9.65;3.10;;;5.20;99.90;;;;;;5000207;28;20257;-76
2024/01/19 12:48:33;;;;;;;12.05;3.15;;;5.10;99.90;;;;;;5008245;28;20229;-75
2024/01/19 12:51:03;;;;;;;9.38;2.70;;;4.90;99.90;;;;;;5003599;28;20605;-76
2024/01/19 12:53:32;;;;;;;9.13;2.35;;;4.90;99.90;;;;;;5005985;28;20280;-74
2024/01/19 12:56:00;;;;;;;7.18;2.55;;;4.90;99.90;;;;;;5009921;28;20288;-77
2024/01/19 12:58:27;;;;;;;7.28;1.80;;;5.10;99.90;;;;;;5004004;28;20288;-74
2024/01/19 13:01:04;;;;;;;5.38;1.90;;;5.00;99.90;;;;;;4999740;28;20620;-75
2024/01/19 13:03:31;;;;;;;13.52;3.40;;;5.00;99.90;;;;;;5001689;28;20623;-75
2024/01/19 13:06:03;;;;;;;11.93;2.35;;;4.90;99.90;;;;;;5006452;28;20201;-75
2024/01/19 13:08:33;;;;;;;9.32;2.75;;;5.00;99.90;;;;;;5000172;28;20198;-76
2024/01/19 13:11:08;;;;;;;6.93;2.65;;;5.00;99.90;;;;;;5013947;28;20280;-75
2024/01/19 13:13:35;;;;;;;13.25;2.50;;;5.00;99.90;;;;;;4995639;28;20224;-76
2024/01/19 13:16:07;;;;;;;11.55;3.03;;;5.00;99.90;;;;;;5008331;28;20640;-76
2024/01/19 13:18:35;;;;;;;14.00;1.83;;;5.00;99.90;;;;;;4998604;28;20218;-75
2024/01/19 13:21:14;;;;;;;10.52;2.80;;;5.00;99.90;;;;;;4996551;28;20657;-77
2024/01/19 13:23:45;;;;;;;6.43;2.20;;;4.90;99.90;;;;;;4995917;28;20227;-76
2024/01/19 13:26:19;;;;;;;7.85;2.63;;;4.90;99.90;;;;;;5000817;28;20752;-77
2024/01/19 13:28:47;;;;;;;6.15;2.35;;;4.80;99.90;;;;;;4994195;28;20198;-77
2024/01/19 13:31:15;;;;;;;10.45;2.67;;;4.80;99.90;;;;;;5007194;28;20206;-76
2024/01/19 13:33:42;;;;;;;6.43;3.15;;;4.80;99.90;;;;;;4997636;28;20261;-76
2024/01/19 13:36:12;;;;;;;9.27;3.55;;;4.80;99.90;;;;;;5003213;28;20209;-77
2024/01/19 13:38:38;;;;;;;5.38;2.75;;;4.90;99.90;;;;;;4994643;28;20679;-77
2024/01/19 13:41:10;;;;;;;10.23;2.45;;;5.00;99.90;;;;;;4999961;28;20202;-76
2024/01/19 13:43:37;;;;;;;17.95;2.92;;;4.80;99.90;;;;;;5004312;28;20668;-77
2024/01/19 13:46:06;;;;;;;6.13;2.33;;;4.80;99.90;;;;;;4997125;28;20240;-77
2024/01/19 13:48:33;;;;;;;6.30;3.08;;;4.80;99.90;;;;;;4998891;28;20277;-76
2024/01/19 13:51:00;;;;;;;6.60;2.42;;;4.80;99.90;;;;;;4995211;28;20306;-76
2024/01/19 13:53:27;;;;;;;6.95;2.78;;;4.80;99.90;;;;;;4997253;28;20650;-77
2024/01/19 13:55:54;;;;;;;8.93;2.05;;;4.80;99.90;;;;;;4998085;28;20799;-77
2024/01/19 13:58:22;;;;;;;9.43;3.10;;;4.70;99.90;;;;;;4998757;28;20209;-76
2024/01/19 14:00:49;;;;;;;5.70;2.95;;;4.60;99.90;;;;;;5003786;28;20225;-77
2024/01/19 14:03:18;;;;;;;4.93;1.70;;;4.60;99.90;;;;;;5006026;28;20329;-76
2024/01/19 14:05:48;;;;;;;8.25;2.50;;;4.80;99.90;;;;;;5005639;28;20240;-77
2024/01/19 14:08:18;;;;;;;5.43;2.65;;;4.80;99.90;;;;;;5001313;28;20212;-76
2024/01/19 14:10:48;;;;;;;8.02;2.20;;;4.70;99.90;;;;;;5006218;28;20198;-77
2024/01/19 14:13:16;;;;;;;5.50;2.25;;;4.70;99.90;;;;;;4995344;28;20252;-77
2024/01/19 14:15:47;;;;;;;4.18;1.92;;;4.70;99.90;;;;;;5006152;28;20315;-77
2024/01/19 14:18:16;;;;;;;7.75;4.00;;;4.70;99.90;;;;;;4997067;28;20225;-77
2024/01/19 14:20:43;;;;;;;14.20;3.63;;;4.70;99.90;;;;;;4996219;28;20285;-78
2024/01/19 14:23:10;;;;;;;7.60;3.10;;;4.70;99.90;;;;;;5001324;28;20268;-77
2024/01/19 14:25:37;;;;;;;9.15;2.80;;;4.70;99.90;;;;;;4999735;28;20206;-76
2024/01/19 14:28:04;;;;;;;8.27;3.42;;;4.60;99.90;;;;;;4999319;28;20210;-77
2024/01/19 14:30:31;;;;;;;5.78;2.83;;;4.60;99.90;;;;;;5000060;28;20229;-77
2024/01/19 14:33:00;;;;;;;7.40;3.17;;;4.50;99.90;;;;;;4998186;28;20287;-75
2024/01/19 14:35:27;;;;;;;9.68;2.92;;;4.50;99.90;;;;;;5009428;28;20275;-76
2024/01/19 14:37:54;;;;;;;10.20;3.17;;;4.50;99.90;;;;;;4998470;28;20202;-74
2024/01/19 14:40:21;;;;;;;5.15;2.67;;;4.50;99.90;;;;;;5004554;28;20264;-76
2024/01/19 14:42:48;;;;;;;9.10;2.53;;;4.50;99.90;;;;;;5000533;28;20309;-75
2024/01/19 14:45:15;;;;;;;7.20;3.08;;;4.40;99.90;;;;;;5002329;28;20237;-74
2024/01/19 14:47:43;;;;;;;5.88;3.00;;;4.40;99.90;;;;;;4999955;28;20202;-73
2024/01/19 14:50:13;;;;;;;5.22;3.17;;;4.30;99.90;;;;;;5003952;28;20197;-75
2024/01/19 14:52:42;;;;;;;6.30;3.55;;;4.30;99.90;;;;;;4997072;28;20226;-74
2024/01/19 14:55:09;;;;;;;14.98;3.10;;;4.20;99.90;;;;;;5013108;28;20224;-74
2024/01/19 14:57:36;;;;;;;7.95;2.97;;;4.20;99.90;;;;;;5007337;28;20656;-75
2024/01/19 15:00:06;;;;;;;7.70;3.20;;;4.20;99.90;;;;;;5001628;28;20256;-74
2024/01/19 15:02:33;;;;;;;10.82;3.30;;;4.10;99.90;;;;;;5008342;28;20230;-74
2024/01/19 15:05:00;;;;;;;7.25;3.13;;;4.10;99.90;;;;;;5004092;28;20209;-76
2024/01/19 15:07:32;;;;;;;13.60;3.20;;;4.00;99.90;;;;;;5003357;28;20253;-75
2024/01/19 15:09:59;;;;;;;9.00;4.15;;;4.00;99.90;;;;;;4999022;28;20285;-76
2024/01/19 15:12:27;;;;;;;6.88;2.83;;;3.80;99.90;;;;;;5002293;28;20363;-76